createdAt,value
2023-06-27T00:00:16.033Z,102022.88
2023-06-27T00:02:49.576Z,102017.09
2023-06-27T00:05:16.225Z,102026.72
2023-06-27T00:07:43.374Z,102033.56
2023-06-27T00:10:13.129Z,102031.56
2023-06-27T00:12:39.713Z,102031.44
2023-06-27T00:15:07.004Z,102029.59
2023-06-27T00:17:34.568Z,102025.63
2023-06-27T00:20:01.805Z,102036.53
2023-06-27T00:22:28.409Z,102032.91
2023-06-27T00:24:55.235Z,102033.66
2023-06-27T00:27:22.178Z,102037.28
2023-06-27T00:29:48.843Z,102034.41
2023-06-27T00:32:15.462Z,102027.91
2023-06-27T00:34:42.245Z,102025.25
2023-06-27T00:37:09.130Z,102025.06
2023-06-27T00:39:37.471Z,102021.44
2023-06-27T00:42:04.597Z,102025.78
2023-06-27T00:44:31.124Z,102034.44
2023-06-27T00:46:58.089Z,102028.75
2023-06-27T00:49:25.428Z,102024.41
2023-06-27T00:51:54.467Z,102013.63
2023-06-27T00:54:27.535Z,102014.38
2023-06-27T00:56:57.565Z,102019.84
2023-06-27T00:59:28.121Z,102030.25
2023-06-27T01:01:55.183Z,102023.66
2023-06-27T01:04:21.805Z,102016.69
2023-06-27T01:06:55.629Z,102015.09
2023-06-27T01:09:32.210Z,102012.13
2023-06-27T01:12:10.950Z,102014.59
2023-06-27T01:14:39.006Z,102007.16
2023-06-27T01:17:06.457Z,102004.84
2023-06-27T01:19:36.903Z,102013.03
2023-06-27T01:22:10.239Z,102012.13
2023-06-27T01:24:38.020Z,102015.00
2023-06-27T01:27:05.414Z,102017.06
2023-06-27T01:29:32.018Z,102013.13
2023-06-27T01:32:25.771Z,102007.91
2023-06-27T01:35:09.979Z,102016.94
2023-06-27T01:37:45.740Z,102003.56
2023-06-27T01:40:15.407Z,102006.03
2023-06-27T01:42:44.301Z,101998.06
2023-06-27T01:45:12.909Z,102009.66
2023-06-27T01:47:43.981Z,102006.53
2023-06-27T01:50:12.295Z,102004.19
2023-06-27T01:52:40.591Z,102010.13
2023-06-27T01:55:07.908Z,102011.44
2023-06-27T01:57:34.725Z,102014.19
2023-06-27T02:00:01.330Z,102014.75
2023-06-27T02:02:42.444Z,102023.59
2023-06-27T02:05:09.415Z,102014.91
2023-06-27T02:07:36.286Z,102013.53
2023-06-27T02:10:03.304Z,102011.28
2023-06-27T02:12:30.234Z,102013.34
2023-06-27T02:14:57.542Z,102012.34
2023-06-27T02:17:24.529Z,102015.19
2023-06-27T02:19:51.137Z,102009.47
2023-06-27T02:22:24.243Z,102012.31
2023-06-27T02:24:57.879Z,102000.25
2023-06-27T02:27:24.531Z,102007.13
2023-06-27T02:29:52.482Z,102003.03
2023-06-27T02:32:19.380Z,102011.63
2023-06-27T02:34:45.991Z,102006.53
2023-06-27T02:37:13.546Z,102010.03
2023-06-27T02:39:40.135Z,102003.44
2023-06-27T02:42:07.052Z,102006.25
2023-06-27T02:44:33.570Z,102011.81
2023-06-27T02:47:00.127Z,102012.91
2023-06-27T02:49:26.757Z,102012.03
2023-06-27T02:51:56.897Z,102013.88
2023-06-27T02:54:23.437Z,102015.94
2023-06-27T02:56:50.549Z,102015.75
2023-06-27T02:59:17.099Z,102014.09
2023-06-27T03:01:43.864Z,102024.09
2023-06-27T03:04:19.105Z,102021.38
2023-06-27T03:06:48.000Z,102014.34
2023-06-27T03:09:15.168Z,102013.34
2023-06-27T03:11:42.128Z,102011.38
2023-06-27T03:14:08.864Z,102015.75
2023-06-27T03:16:35.924Z,102019.31
2023-06-27T03:19:03.134Z,102017.34
2023-06-27T03:21:30.621Z,102018.22
2023-06-27T03:23:57.481Z,102017.00
2023-06-27T03:26:32.018Z,102013.44
2023-06-27T03:29:01.146Z,102020.59
2023-06-27T03:31:28.084Z,102016.59
2023-06-27T03:33:56.079Z,102015.34
2023-06-27T03:36:22.693Z,102022.09
2023-06-27T03:38:52.086Z,102018.47
2023-06-27T03:41:19.152Z,102017.91
2023-06-27T03:43:47.411Z,102016.22
2023-06-27T03:46:15.365Z,102010.88
2023-06-27T03:48:42.135Z,102017.13
2023-06-27T03:51:08.698Z,102011.06
2023-06-27T03:53:35.360Z,102010.50
2023-06-27T03:56:03.336Z,102008.53
2023-06-27T03:58:31.763Z,102009.19
2023-06-27T04:01:01.881Z,102009.94
2023-06-27T04:03:29.612Z,102006.75
2023-06-27T04:05:56.265Z,102009.63
2023-06-27T04:08:24.558Z,102005.59
2023-06-27T04:10:51.090Z,102003.38
2023-06-27T04:13:19.566Z,101997.56
2023-06-27T04:15:46.070Z,102001.03
2023-06-27T04:18:14.441Z,101998.81
2023-06-27T04:20:41.087Z,102002.03
2023-06-27T04:23:07.894Z,102005.53
2023-06-27T04:25:39.433Z,102011.34
2023-06-27T04:28:06.369Z,102011.22
2023-06-27T04:30:33.829Z,102012.81
2023-06-27T04:33:05.541Z,102009.97
2023-06-27T04:35:32.153Z,102007.88
2023-06-27T04:38:06.030Z,102013.94
2023-06-27T04:40:32.710Z,102013.69
2023-06-27T04:43:05.478Z,102021.03
2023-06-27T04:45:32.911Z,102025.84
2023-06-27T04:48:01.312Z,102019.66
2023-06-27T04:50:28.167Z,102022.88
2023-06-27T04:52:56.213Z,102026.09
2023-06-27T04:55:23.000Z,102022.03
2023-06-27T04:57:49.597Z,102020.53
2023-06-27T05:00:16.541Z,102020.53
2023-06-27T05:02:49.557Z,102026.38
2023-06-27T05:05:18.300Z,102025.13
2023-06-27T05:07:45.008Z,102025.63
2023-06-27T05:10:11.566Z,102019.72
2023-06-27T05:12:38.089Z,102024.16
2023-06-27T05:15:10.496Z,102028.00
2023-06-27T05:17:37.179Z,102029.22
2023-06-27T05:20:05.407Z,102022.50
2023-06-27T05:22:31.940Z,102031.28
2023-06-27T05:25:01.217Z,102026.16
2023-06-27T05:27:27.844Z,102029.66
2023-06-27T05:29:58.360Z,102025.00
2023-06-27T05:32:25.461Z,102024.94
2023-06-27T05:34:52.037Z,102019.63
2023-06-27T05:37:18.648Z,102016.78
2023-06-27T05:39:46.411Z,102012.41
2023-06-27T05:42:16.474Z,102023.72
2023-06-27T05:44:43.031Z,102024.66
2023-06-27T05:47:09.718Z,102019.22
2023-06-27T05:49:36.244Z,102031.81
2023-06-27T05:52:11.797Z,102034.25
2023-06-27T05:54:47.763Z,102021.03
2023-06-27T05:57:14.447Z,102027.53
2023-06-27T05:59:41.199Z,102028.53
2023-06-27T06:02:07.828Z,102025.97
2023-06-27T06:04:34.821Z,102016.03
2023-06-27T06:07:01.429Z,102023.78
2023-06-27T06:09:49.476Z,102024.72
2023-06-27T06:12:15.994Z,102020.47
2023-06-27T06:14:42.681Z,102021.19
2023-06-27T06:17:09.204Z,102021.72
2023-06-27T06:19:35.686Z,102018.06
2023-06-27T06:22:02.225Z,102024.16
2023-06-27T06:24:28.818Z,102020.25
2023-06-27T06:26:55.341Z,102026.25
2023-06-27T06:29:21.881Z,102018.25
2023-06-27T06:31:49.785Z,102020.34
2023-06-27T06:34:16.217Z,102036.44
2023-06-27T06:36:43.126Z,102035.78
2023-06-27T06:39:09.629Z,102038.81
2023-06-27T06:41:36.123Z,102033.53
2023-06-27T06:46:54.364Z,102038.13
2023-06-27T06:49:20.927Z,102034.78
2023-06-27T06:51:47.590Z,102032.88
2023-06-27T06:54:34.339Z,102036.88
2023-06-27T06:57:00.968Z,102035.50
2023-06-27T06:59:27.573Z,102034.88
2023-06-27T07:02:01.093Z,102039.34
2023-06-27T07:04:27.665Z,102040.63
2023-06-27T07:06:59.393Z,102044.19
2023-06-27T07:09:29.571Z,102045.81
2023-06-27T07:12:05.382Z,102034.81
2023-06-27T07:14:33.416Z,102030.44
2023-06-27T07:16:59.986Z,102032.66
2023-06-27T07:19:27.735Z,102029.59
2023-06-27T07:21:54.378Z,102031.19
2023-06-27T07:24:20.969Z,102036.69
2023-06-27T07:26:47.601Z,102033.19
2023-06-27T07:29:14.218Z,102032.44
2023-06-27T07:31:40.808Z,102035.19
2023-06-27T07:34:07.570Z,102040.63
2023-06-27T07:36:34.103Z,102032.09
2023-06-27T07:39:00.740Z,102028.59
2023-06-27T07:41:27.423Z,102033.19
2023-06-27T07:43:54.021Z,102022.38
2023-06-27T07:46:20.559Z,102016.38
2023-06-27T07:48:49.220Z,102028.28
2023-06-27T07:51:15.831Z,102026.63
2023-06-27T07:53:43.072Z,102024.56
2023-06-27T07:56:16.535Z,102016.44
2023-06-27T07:58:44.406Z,102015.63
2023-06-27T08:01:14.216Z,102021.72
2023-06-27T08:03:51.828Z,102014.06
2023-06-27T08:06:40.310Z,102014.31
2023-06-27T08:09:07.394Z,102014.59
2023-06-27T08:11:40.177Z,102021.31
2023-06-27T08:14:07.155Z,102018.44
2023-06-27T08:16:49.467Z,102010.69
2023-06-27T08:19:16.076Z,102011.03
2023-06-27T08:21:48.195Z,102015.91
2023-06-27T08:24:14.915Z,102023.06
2023-06-27T08:26:42.114Z,102024.91
2023-06-27T08:29:17.821Z,102018.00
2023-06-27T08:31:44.365Z,102029.25
2023-06-27T08:36:52.823Z,102022.56
2023-06-27T08:39:19.552Z,102022.31
2023-06-27T08:41:49.836Z,102022.25
2023-06-27T08:44:16.693Z,102023.28
2023-06-27T08:46:50.918Z,102017.19
2023-06-27T08:49:28.048Z,102017.47
2023-06-27T08:52:01.615Z,102017.28
2023-06-27T08:54:35.472Z,102016.84
2023-06-27T08:57:08.170Z,102022.22
2023-06-27T08:59:37.405Z,102023.22
2023-06-27T09:02:05.160Z,102021.88
2023-06-27T09:04:34.657Z,102018.81
2023-06-27T09:07:02.030Z,102023.78
2023-06-27T09:09:30.111Z,102026.81
2023-06-27T09:12:15.642Z,102027.75
2023-06-27T09:14:42.264Z,102025.03
2023-06-27T09:17:09.503Z,102029.78
2023-06-27T09:19:45.070Z,102030.44
2023-06-27T09:22:12.306Z,102030.91
2023-06-27T09:24:45.172Z,102027.56
2023-06-27T09:27:31.586Z,102018.56
2023-06-27T09:30:24.204Z,102029.00
2023-06-27T09:34:02.855Z,102024.81
2023-06-27T09:40:28.070Z,102030.00
2023-06-27T09:42:56.647Z,102028.53
2023-06-27T09:45:24.933Z,102017.94
2023-06-27T09:47:53.783Z,102030.81
2023-06-27T09:50:28.102Z,102027.91
2023-06-27T09:53:04.122Z,102040.25
2023-06-27T09:55:30.666Z,102037.69
2023-06-27T09:57:58.623Z,102034.13
2023-06-27T10:00:28.186Z,102049.91
2023-06-27T10:02:54.917Z,102051.47
2023-06-27T10:05:22.567Z,102046.00
2023-06-27T10:07:50.763Z,102045.34
2023-06-27T10:10:17.908Z,102043.88
2023-06-27T10:12:46.075Z,102055.13
2023-06-27T10:15:19.950Z,102058.53
2023-06-27T10:17:46.878Z,102057.94
2023-06-27T10:20:14.473Z,102054.84
2023-06-27T10:22:44.933Z,102051.53
2023-06-27T10:25:12.167Z,102044.78
2023-06-27T10:27:40.041Z,102048.06
2023-06-27T10:30:21.579Z,102047.78
2023-06-27T10:32:49.349Z,102051.88
2023-06-27T10:35:27.590Z,102058.25
2023-06-27T10:38:10.004Z,102049.09
2023-06-27T10:41:03.430Z,102040.63
2023-06-27T10:43:39.533Z,102039.59
2023-06-27T10:46:21.020Z,102042.66
2023-06-27T10:48:50.006Z,102055.88
2023-06-27T10:51:22.246Z,102050.03
2023-06-27T10:54:13.063Z,102042.59
2023-06-27T10:56:54.406Z,102053.38
2023-06-27T10:59:23.626Z,102045.75
2023-06-27T11:02:05.961Z,102026.72
2023-06-27T11:04:43.235Z,102039.44
2023-06-27T11:07:18.382Z,102044.66
2023-06-27T11:09:59.338Z,102049.63
2023-06-27T11:12:34.980Z,102047.13
2023-06-27T11:15:47.992Z,102051.81
2023-06-27T11:18:17.345Z,102050.66
2023-06-27T11:20:44.398Z,102049.25
2023-06-27T11:23:12.773Z,102054.47
2023-06-27T11:25:43.423Z,102051.13
2023-06-27T11:28:12.242Z,102035.50
2023-06-27T11:30:39.968Z,102054.97
2023-06-27T11:33:07.213Z,102047.22
2023-06-27T11:35:34.312Z,102055.03
2023-06-27T11:38:01.182Z,102050.84
2023-06-27T11:40:28.846Z,102040.56
2023-06-27T11:43:03.325Z,102039.28
2023-06-27T11:45:30.733Z,102042.56
2023-06-27T11:47:57.409Z,102033.53
2023-06-27T11:50:24.906Z,102038.22
2023-06-27T11:52:52.576Z,102053.63
2023-06-27T11:55:19.251Z,102040.31
2023-06-27T11:57:47.751Z,102039.22
2023-06-27T12:00:23.262Z,102043.19
2023-06-27T12:02:53.774Z,102036.47
2023-06-27T12:05:22.295Z,102044.38
2023-06-27T12:08:21.663Z,102035.53
2023-06-27T12:10:58.280Z,102033.13
2023-06-27T12:13:40.748Z,102034.28
2023-06-27T12:16:07.493Z,102024.41
2023-06-27T12:18:34.609Z,102022.88
2023-06-27T12:21:01.547Z,102011.94
2023-06-27T12:23:30.189Z,102021.34
2023-06-27T12:25:57.086Z,102020.50
2023-06-27T12:28:30.418Z,102009.41
2023-06-27T12:30:57.143Z,102013.22
2023-06-27T12:33:24.658Z,102005.75
2023-06-27T12:35:51.564Z,102009.75
2023-06-27T12:38:18.123Z,102006.09
2023-06-27T12:40:44.701Z,102006.59
2023-06-27T12:43:12.854Z,102016.47
2023-06-27T12:45:44.329Z,102009.06
2023-06-27T12:48:11.649Z,102012.28
2023-06-27T12:50:38.296Z,102013.97
2023-06-27T12:53:04.953Z,102009.09
2023-06-27T12:55:31.565Z,102006.41
2023-06-27T12:58:00.338Z,102003.03
2023-06-27T13:00:26.966Z,101995.41
2023-06-27T13:03:04.180Z,102002.69
2023-06-27T13:05:35.443Z,101998.56
2023-06-27T13:08:01.967Z,101999.91
2023-06-27T13:10:28.704Z,101999.53
2023-06-27T13:12:55.970Z,101998.88
2023-06-27T13:15:23.778Z,101997.88
2023-06-27T13:17:54.657Z,101989.81
2023-06-27T13:20:21.955Z,101992.06
2023-06-27T13:22:49.575Z,101998.59
2023-06-27T13:25:18.490Z,102002.31
2023-06-27T13:27:44.992Z,101994.09
2023-06-27T13:30:20.380Z,101994.06
2023-06-27T13:32:50.371Z,101986.63
2023-06-27T13:35:16.984Z,101989.97
2023-06-27T13:37:59.642Z,101987.78
2023-06-27T13:40:29.078Z,101988.91
2023-06-27T13:42:57.562Z,101992.44
2023-06-27T13:45:25.210Z,101987.09
2023-06-27T13:47:52.327Z,101981.66
2023-06-27T13:50:19.727Z,101985.88
2023-06-27T13:52:46.238Z,101976.59
2023-06-27T13:55:13.065Z,101985.50
2023-06-27T13:57:39.590Z,101983.34
2023-06-27T14:00:06.915Z,101978.53
2023-06-27T14:02:39.209Z,101991.41
2023-06-27T14:05:27.686Z,101985.09
2023-06-27T14:07:56.093Z,101983.94
2023-06-27T14:10:23.617Z,101983.44
2023-06-27T14:12:50.586Z,101981.78
2023-06-27T14:15:17.800Z,101974.19
2023-06-27T14:17:44.633Z,101975.19
2023-06-27T14:20:14.300Z,101981.56
2023-06-27T14:22:41.367Z,101967.72
2023-06-27T14:25:08.664Z,101969.50
2023-06-27T14:27:36.503Z,101962.47
2023-06-27T14:30:04.912Z,101959.63
2023-06-27T14:32:31.831Z,101952.09
2023-06-27T14:34:59.274Z,101946.75
2023-06-27T14:37:25.875Z,101948.50
2023-06-27T14:39:54.806Z,101959.81
2023-06-27T14:42:21.320Z,101956.22
2023-06-27T14:44:47.987Z,101951.78
2023-06-27T14:47:14.772Z,101956.34
2023-06-27T14:49:41.543Z,101958.59
2023-06-27T14:52:08.194Z,101959.75
2023-06-27T14:54:34.898Z,101958.91
2023-06-27T14:57:07.311Z,101950.16
2023-06-27T14:59:34.169Z,101956.34
2023-06-27T15:02:00.694Z,101949.50
2023-06-27T15:04:27.299Z,101941.69
2023-06-27T15:06:56.909Z,101945.75
2023-06-27T15:09:23.493Z,101944.38
2023-06-27T15:11:50.540Z,101933.53
2023-06-27T15:14:17.259Z,101928.59
2023-06-27T15:16:43.976Z,101943.88
2023-06-27T15:19:10.487Z,101935.81
2023-06-27T15:21:37.040Z,101947.38
2023-06-27T15:24:03.787Z,101940.22
2023-06-27T15:26:30.394Z,101939.03
2023-06-27T15:28:56.984Z,101946.13
2023-06-27T15:31:23.536Z,101938.88
2023-06-27T15:33:50.135Z,101943.75
2023-06-27T15:36:16.949Z,101940.84
2023-06-27T15:38:43.500Z,101940.16
2023-06-27T15:41:10.188Z,101930.31
2023-06-27T15:43:37.226Z,101939.84
2023-06-27T15:46:04.661Z,101942.78
2023-06-27T15:48:31.461Z,101939.69
2023-06-27T15:50:59.838Z,101937.63
2023-06-27T15:53:26.601Z,101931.75
2023-06-27T15:55:53.152Z,101931.22
2023-06-27T15:58:19.718Z,101931.94
2023-06-27T16:00:46.324Z,101930.31
2023-06-27T16:03:13.012Z,101930.22
2023-06-27T16:05:39.688Z,101925.03
2023-06-27T16:08:06.256Z,101920.56
2023-06-27T16:10:33.071Z,101930.03
2023-06-27T16:12:59.838Z,101922.97
2023-06-27T16:15:26.356Z,101926.41
2023-06-27T16:17:53.554Z,101927.94
2023-06-27T16:20:20.106Z,101929.63
2023-06-27T16:22:46.652Z,101933.56
2023-06-27T16:25:14.181Z,101924.06
2023-06-27T16:27:40.909Z,101932.53
2023-06-27T16:30:09.561Z,101914.09
2023-06-27T16:32:37.469Z,101917.56
2023-06-27T16:35:04.406Z,101932.91
2023-06-27T16:37:32.941Z,101938.72
2023-06-27T16:39:59.940Z,101941.25
2023-06-27T16:42:26.543Z,101934.00
2023-06-27T16:44:53.296Z,101934.66
2023-06-27T16:47:21.333Z,101934.81
2023-06-27T16:49:48.953Z,101940.25
2023-06-27T16:52:15.475Z,101935.94
2023-06-27T16:54:42.014Z,101935.75
2023-06-27T16:57:08.654Z,101922.19
2023-06-27T16:59:35.360Z,101928.81
2023-06-27T17:02:01.983Z,101944.28
2023-06-27T17:04:28.692Z,101948.75
2023-06-27T17:06:55.311Z,101943.16
2023-06-27T17:09:22.360Z,101944.22
2023-06-27T17:11:49.077Z,101940.88
2023-06-27T17:14:15.945Z,101948.22
2023-06-27T17:16:43.079Z,101939.75
2023-06-27T17:19:11.402Z,101938.91
2023-06-27T17:21:38.694Z,101937.13
2023-06-27T17:24:05.895Z,101935.50
2023-06-27T17:26:32.676Z,101932.81
2023-06-27T17:28:59.376Z,101937.88
2023-06-27T17:31:26.675Z,101938.06
2023-06-27T17:33:53.401Z,101932.41
2023-06-27T17:36:20.007Z,101928.75
2023-06-27T17:38:46.549Z,101937.00
2023-06-27T17:41:13.051Z,101935.28
2023-06-27T17:43:39.549Z,101945.34
2023-06-27T17:46:06.115Z,101949.25
2023-06-27T17:48:32.663Z,101948.88
2023-06-27T17:50:59.181Z,101969.91
2023-06-27T17:53:25.739Z,101977.06
2023-06-27T17:55:52.423Z,101974.34
2023-06-27T17:58:19.138Z,101967.78
2023-06-27T18:00:45.959Z,101966.16
2023-06-27T18:03:13.005Z,101962.97
2023-06-27T18:05:39.997Z,101960.75
2023-06-27T18:08:16.817Z,101963.41
2023-06-27T18:10:44.438Z,101965.19
2023-06-27T18:13:11.525Z,101953.19
2023-06-27T18:15:38.294Z,101959.19
2023-06-27T18:18:05.413Z,101952.56
2023-06-27T18:20:32.153Z,101951.94
2023-06-27T18:22:58.684Z,101952.28
2023-06-27T18:25:25.309Z,101948.66
2023-06-27T18:27:51.956Z,101950.53
2023-06-27T18:30:18.588Z,101955.19
2023-06-27T18:32:46.211Z,101952.84
2023-06-27T18:35:12.964Z,101951.16
2023-06-27T18:37:39.502Z,101965.78
2023-06-27T18:40:06.596Z,101972.72
2023-06-27T18:42:33.278Z,101965.34
2023-06-27T18:44:59.999Z,101964.53
2023-06-27T18:47:26.820Z,101976.81
2023-06-27T18:49:53.533Z,101963.88
2023-06-27T18:52:20.199Z,101966.31
2023-06-27T18:54:46.822Z,101970.50
2023-06-27T18:57:13.694Z,101968.97
2023-06-27T18:59:40.180Z,101978.13
2023-06-27T19:02:07.606Z,101972.38
2023-06-27T19:04:37.129Z,101971.19
2023-06-27T19:07:03.914Z,101965.56
2023-06-27T19:09:30.652Z,101976.84
2023-06-27T19:11:57.215Z,101963.28
2023-06-27T19:14:23.694Z,101968.19
2023-06-27T19:16:50.324Z,101965.44
2023-06-27T19:19:17.718Z,101963.56
2023-06-27T19:21:44.998Z,101964.44
2023-06-27T19:24:12.290Z,101963.44
2023-06-27T19:26:38.901Z,101967.88
2023-06-27T19:29:05.445Z,101965.44
2023-06-27T19:31:32.076Z,101967.78
2023-06-27T19:33:58.630Z,101965.59
2023-06-27T19:36:25.150Z,101964.91
2023-06-27T19:38:54.801Z,101961.59
2023-06-27T19:41:24.491Z,101963.47
2023-06-27T19:43:51.139Z,101963.06
2023-06-27T19:46:17.860Z,101958.03
2023-06-27T19:48:44.466Z,101960.03
2023-06-27T19:51:11.790Z,101961.19
2023-06-27T19:53:39.144Z,101968.56
2023-06-27T19:56:06.937Z,101968.97
2023-06-27T19:58:33.528Z,101966.84
2023-06-27T20:01:00.659Z,101970.44
2023-06-27T20:03:27.218Z,101969.47
2023-06-27T20:05:56.505Z,101968.44
2023-06-27T20:08:23.251Z,101974.59
2023-06-27T20:10:49.904Z,101974.47
2023-06-27T20:13:16.764Z,101981.22
2023-06-27T20:15:43.389Z,101968.94
2023-06-27T20:18:11.016Z,101976.72
2023-06-27T20:20:37.558Z,101973.22
2023-06-27T20:23:04.221Z,101978.13
2023-06-27T20:25:30.734Z,101973.94
2023-06-27T20:28:00.421Z,101980.25
2023-06-27T20:30:29.132Z,101977.63
2023-06-27T20:32:56.157Z,101987.25
2023-06-27T20:35:22.910Z,101965.03
2023-06-27T20:37:49.851Z,101972.03
2023-06-27T20:40:16.654Z,101975.31
2023-06-27T20:42:46.756Z,101967.06
2023-06-27T20:45:14.457Z,101977.53
2023-06-27T20:47:41.110Z,101976.94
2023-06-27T20:50:09.134Z,101977.31
2023-06-27T20:52:35.789Z,101975.97
2023-06-27T20:55:02.532Z,101986.91
2023-06-27T20:57:29.108Z,101989.28
2023-06-27T20:59:57.041Z,101980.38
2023-06-27T21:02:24.597Z,101978.44
2023-06-27T21:04:57.333Z,101976.09
2023-06-27T21:07:23.993Z,101977.66
2023-06-27T21:09:50.651Z,101977.88
2023-06-27T21:12:20.550Z,101983.13
2023-06-27T21:14:49.480Z,101978.47
2023-06-27T21:17:24.511Z,101981.09
2023-06-27T21:19:51.139Z,101978.91
2023-06-27T21:22:17.800Z,101982.63
2023-06-27T21:24:46.819Z,101988.44
2023-06-27T21:27:13.395Z,101980.81
2023-06-27T21:29:40.019Z,101987.63
2023-06-27T21:32:07.300Z,101981.69
2023-06-27T21:34:33.834Z,101973.78
2023-06-27T21:37:00.391Z,101975.28
2023-06-27T21:39:27.143Z,101975.16
2023-06-27T21:41:54.002Z,101976.41
2023-06-27T21:44:20.695Z,101977.66
2023-06-27T21:46:47.336Z,101968.38
2023-06-27T21:49:13.887Z,101963.91
2023-06-27T21:51:40.458Z,101967.66
2023-06-27T21:54:07.037Z,101963.19
2023-06-27T21:56:35.935Z,101960.84
2023-06-27T21:59:04.526Z,101960.34
2023-06-27T22:01:31.052Z,101964.69
2023-06-27T22:03:57.832Z,101956.53
2023-06-27T22:06:34.134Z,101963.44
2023-06-27T22:09:01.045Z,101967.69
2023-06-27T22:11:27.708Z,101962.72
2023-06-27T22:13:55.497Z,101966.53
2023-06-27T22:16:22.999Z,101970.53
2023-06-27T22:18:50.254Z,101962.69
2023-06-27T22:21:17.453Z,101963.69
2023-06-27T22:23:44.108Z,101962.94
2023-06-27T22:26:10.766Z,101968.78
2023-06-27T22:28:38.878Z,101958.97
2023-06-27T22:31:05.599Z,101956.88
2023-06-27T22:33:32.496Z,101957.00
2023-06-27T22:35:59.201Z,101955.28
2023-06-27T22:38:27.211Z,101954.41
2023-06-27T22:40:53.725Z,101959.97
2023-06-27T22:43:20.277Z,101957.50
2023-06-27T22:45:46.907Z,101961.22
2023-06-27T22:48:13.637Z,101960.97
2023-06-27T22:50:40.757Z,101957.25
2023-06-27T22:53:11.894Z,101952.06
2023-06-27T22:55:38.540Z,101957.13
2023-06-27T22:58:05.068Z,101946.00
2023-06-27T23:00:32.092Z,101955.03
2023-06-27T23:02:58.789Z,101949.31
2023-06-27T23:05:25.503Z,101950.06
2023-06-27T23:07:52.161Z,101951.06
2023-06-27T23:10:18.834Z,101943.88
2023-06-27T23:12:45.414Z,101943.25
2023-06-27T23:15:12.100Z,101950.09
2023-06-27T23:17:39.144Z,101948.31
2023-06-27T23:20:08.194Z,101957.25
2023-06-27T23:22:37.898Z,101957.63
2023-06-27T23:25:06.849Z,101957.88
2023-06-27T23:27:36.396Z,101955.16
2023-06-27T23:30:05.108Z,101956.25
2023-06-27T23:32:32.026Z,101949.09
2023-06-27T23:35:01.519Z,101951.44
2023-06-27T23:37:28.463Z,101948.34
2023-06-27T23:39:55.061Z,101949.84
2023-06-27T23:42:21.604Z,101946.38
2023-06-27T23:44:48.198Z,101945.50
2023-06-27T23:47:15.749Z,101945.50
2023-06-27T23:49:42.526Z,101947.13
2023-06-27T23:52:09.054Z,101952.56
2023-06-27T23:54:35.684Z,101958.00
2023-06-27T23:57:02.377Z,101952.69
2023-06-27T23:59:29.484Z,101955.00
